sim
Sign-in with your pilot id or email,
or register
Callsign
Passwort

Schedule Details

Flight Number: OEO8960
Departure: Basel Mulhouse-Freiburg EuroAirport (LFSB) at 15:40
Arrival: Bremen Airport (EDDW) at 17:10

Weather Information
Getting current METAR information for LFSB 112100Z AUTO 33003KT CAVOK 14/07 Q1024 NOSIG
Getting current METAR information for EDDW 112050Z 24001KT 9999 FEW033 12/12 Q1026 NOSIG

Schedule Frequency

Route Map